sensor_id;sensor_type;location;lat;lon;timestamp;temperature;humidity
51579;DHT22;47998;53.242;6.386;2023-07-20T00:01:04;13.70;99.90
51579;DHT22;47998;53.242;6.386;2023-07-20T00:03:30;13.60;99.90
51579;DHT22;47998;53.242;6.386;2023-07-20T00:05:55;13.60;99.90
51579;DHT22;47998;53.242;6.386;2023-07-20T00:08:21;13.60;99.90
51579;DHT22;47998;53.242;6.386;2023-07-20T00:10:47;13.60;99.90
51579;DHT22;47998;53.242;6.386;2023-07-20T00:13:13;13.60;99.90
51579;DHT22;47998;53.242;6.386;2023-07-20T00:15:38;13.60;99.90
51579;DHT22;47998;53.242;6.386;2023-07-20T00:18:05;13.50;99.90
51579;DHT22;47998;53.242;6.386;2023-07-20T00:20:31;13.50;99.90
51579;DHT22;47998;53.242;6.386;2023-07-20T00:22:57;13.40;99.90
51579;DHT22;47998;53.242;6.386;2023-07-20T00:25:26;13.40;99.90
51579;DHT22;47998;53.242;6.386;2023-07-20T00:27:52;13.30;99.90
51579;DHT22;47998;53.242;6.386;2023-07-20T00:30:18;13.10;99.90
51579;DHT22;47998;53.242;6.386;2023-07-20T00:32:44;13.00;99.90
51579;DHT22;47998;53.242;6.386;2023-07-20T00:35:10;12.90;99.90
51579;DHT22;47998;53.242;6.386;2023-07-20T00:37:38;12.70;99.90
51579;DHT22;47998;53.242;6.386;2023-07-20T00:40:04;12.50;99.90
51579;DHT22;47998;53.242;6.386;2023-07-20T00:42:33;12.40;99.90
51579;DHT22;47998;53.242;6.386;2023-07-20T00:44:59;12.30;99.90
51579;DHT22;47998;53.242;6.386;2023-07-20T00:47:26;12.20;99.90
51579;DHT22;47998;53.242;6.386;2023-07-20T00:49:52;12.20;99.90
51579;DHT22;47998;53.242;6.386;2023-07-20T00:52:21;12.10;99.90
51579;DHT22;47998;53.242;6.386;2023-07-20T00:54:47;12.10;99.90
51579;DHT22;47998;53.242;6.386;2023-07-20T00:57:17;12.00;99.90
51579;DHT22;47998;53.242;6.386;2023-07-20T00:59:45;11.90;99.90
51579;DHT22;47998;53.242;6.386;2023-07-20T01:02:10;11.90;99.90
51579;DHT22;47998;53.242;6.386;2023-07-20T01:04:36;11.70;99.90
51579;DHT22;47998;53.242;6.386;2023-07-20T01:12:47;11.50;99.90
51579;DHT22;47998;53.242;6.386;2023-07-20T01:15:13;11.40;99.90
51579;DHT22;47998;53.242;6.386;2023-07-20T01:17:39;11.30;99.90
51579;DHT22;47998;53.242;6.386;2023-07-20T01:20:07;11.20;99.90
51579;DHT22;47998;53.242;6.386;2023-07-20T01:25:44;11.00;99.90
51579;DHT22;47998;53.242;6.386;2023-07-20T01:33:36;10.80;99.90
51579;DHT22;47998;53.242;6.386;2023-07-20T01:36:03;10.70;99.90
51579;DHT22;47998;53.242;6.386;2023-07-20T01:38:29;10.70;99.90
51579;DHT22;47998;53.242;6.386;2023-07-20T01:40:56;10.60;99.90
51579;DHT22;47998;53.242;6.386;2023-07-20T01:43:22;10.50;99.90
51579;DHT22;47998;53.242;6.386;2023-07-20T01:45:48;10.40;99.90
51579;DHT22;47998;53.242;6.386;2023-07-20T01:48:14;10.30;99.90
51579;DHT22;47998;53.242;6.386;2023-07-20T01:50:39;10.20;99.90
51579;DHT22;47998;53.242;6.386;2023-07-20T01:53:05;10.10;99.90
51579;DHT22;47998;53.242;6.386;2023-07-20T01:55:31;10.00;99.90
51579;DHT22;47998;53.242;6.386;2023-07-20T01:57:57;9.90;99.90
51579;DHT22;47998;53.242;6.386;2023-07-20T02:00:25;9.90;99.90
51579;DHT22;47998;53.242;6.386;2023-07-20T02:02:51;9.90;99.90
51579;DHT22;47998;53.242;6.386;2023-07-20T02:05:16;9.90;99.90
51579;DHT22;47998;53.242;6.386;2023-07-20T02:07:43;9.90;99.90
51579;DHT22;47998;53.242;6.386;2023-07-20T02:10:09;9.90;99.90
51579;DHT22;47998;53.242;6.386;2023-07-20T02:12:35;10.00;99.90
51579;DHT22;47998;53.242;6.386;2023-07-20T02:15:02;10.00;99.90
51579;DHT22;47998;53.242;6.386;2023-07-20T02:17:28;10.00;99.90
51579;DHT22;47998;53.242;6.386;2023-07-20T02:19:54;10.00;99.90
51579;DHT22;47998;53.242;6.386;2023-07-20T02:22:21;10.00;99.90
51579;DHT22;47998;53.242;6.386;2023-07-20T02:24:47;10.00;99.90
51579;DHT22;47998;53.242;6.386;2023-07-20T02:27:12;10.00;99.90
51579;DHT22;47998;53.242;6.386;2023-07-20T02:29:40;10.00;99.90
51579;DHT22;47998;53.242;6.386;2023-07-20T02:32:06;9.90;99.90
51579;DHT22;47998;53.242;6.386;2023-07-20T02:34:32;9.90;99.90
51579;DHT22;47998;53.242;6.386;2023-07-20T02:36:58;9.80;99.90
51579;DHT22;47998;53.242;6.386;2023-07-20T02:39:29;9.80;99.90
51579;DHT22;47998;53.242;6.386;2023-07-20T02:41:55;9.80;99.90
51579;DHT22;47998;53.242;6.386;2023-07-20T02:44:21;9.80;99.90
51579;DHT22;47998;53.242;6.386;2023-07-20T02:46:47;9.80;99.90
51579;DHT22;47998;53.242;6.386;2023-07-20T02:49:15;9.80;99.90
51579;DHT22;47998;53.242;6.386;2023-07-20T02:51:41;9.70;99.90
51579;DHT22;47998;53.242;6.386;2023-07-20T02:54:07;9.70;99.90
51579;DHT22;47998;53.242;6.386;2023-07-20T02:56:33;9.80;99.90
51579;DHT22;47998;53.242;6.386;2023-07-20T02:59:01;9.80;99.90
51579;DHT22;47998;53.242;6.386;2023-07-20T03:01:27;9.80;99.90
51579;DHT22;47998;53.242;6.386;2023-07-20T03:03:55;9.80;99.90
51579;DHT22;47998;53.242;6.386;2023-07-20T03:06:20;9.90;99.90
51579;DHT22;47998;53.242;6.386;2023-07-20T03:08:46;9.80;99.90
51579;DHT22;47998;53.242;6.386;2023-07-20T03:11:17;9.80;99.90
51579;DHT22;47998;53.242;6.386;2023-07-20T03:13:43;9.70;99.90
51579;DHT22;47998;53.242;6.386;2023-07-20T03:16:10;9.70;99.90
51579;DHT22;47998;53.242;6.386;2023-07-20T03:18:37;9.70;99.90
51579;DHT22;47998;53.242;6.386;2023-07-20T03:21:05;9.60;99.90
51579;DHT22;47998;53.242;6.386;2023-07-20T03:23:31;9.60;99.90
51579;DHT22;47998;53.242;6.386;2023-07-20T03:25:57;9.60;99.90
51579;DHT22;47998;53.242;6.386;2023-07-20T03:28:23;9.50;99.90
51579;DHT22;47998;53.242;6.386;2023-07-20T03:30:55;9.50;99.90
51579;DHT22;47998;53.242;6.386;2023-07-20T03:33:31;9.40;99.90
51579;DHT22;47998;53.242;6.386;2023-07-20T03:35:57;9.40;99.90
51579;DHT22;47998;53.242;6.386;2023-07-20T03:38:24;9.50;99.90
51579;DHT22;47998;53.242;6.386;2023-07-20T03:40:53;9.40;99.90
51579;DHT22;47998;53.242;6.386;2023-07-20T03:43:20;9.50;99.90
51579;DHT22;47998;53.242;6.386;2023-07-20T03:45:46;9.40;99.90
51579;DHT22;47998;53.242;6.386;2023-07-20T03:48:15;9.40;99.90
51579;DHT22;47998;53.242;6.386;2023-07-20T03:50:40;9.40;99.90
51579;DHT22;47998;53.242;6.386;2023-07-20T03:53:06;9.40;99.90
51579;DHT22;47998;53.242;6.386;2023-07-20T03:55:32;9.40;99.90
51579;DHT22;47998;53.242;6.386;2023-07-20T03:57:58;9.40;99.90
51579;DHT22;47998;53.242;6.386;2023-07-20T04:00:24;9.30;99.90
51579;DHT22;47998;53.242;6.386;2023-07-20T04:02:50;9.30;99.90
51579;DHT22;47998;53.242;6.386;2023-07-20T04:05:16;9.30;99.90
51579;DHT22;47998;53.242;6.386;2023-07-20T04:07:41;9.20;99.90
51579;DHT22;47998;53.242;6.386;2023-07-20T04:10:07;9.20;99.90
51579;DHT22;47998;53.242;6.386;2023-07-20T04:12:33;9.20;99.90
51579;DHT22;47998;53.242;6.386;2023-07-20T04:14:59;9.10;99.90
51579;DHT22;47998;53.242;6.386;2023-07-20T04:17:25;9.10;99.90
51579;DHT22;47998;53.242;6.386;2023-07-20T04:19:50;9.20;99.90
51579;DHT22;47998;53.242;6.386;2023-07-20T04:22:16;9.40;99.90
51579;DHT22;47998;53.242;6.386;2023-07-20T04:24:42;9.50;99.90
51579;DHT22;47998;53.242;6.386;2023-07-20T04:27:08;9.70;99.90
51579;DHT22;47998;53.242;6.386;2023-07-20T04:29:34;9.90;99.90
51579;DHT22;47998;53.242;6.386;2023-07-20T04:32:00;10.10;99.90
51579;DHT22;47998;53.242;6.386;2023-07-20T04:34:25;10.30;99.90
51579;DHT22;47998;53.242;6.386;2023-07-20T04:36:51;10.40;99.90
51579;DHT22;47998;53.242;6.386;2023-07-20T04:39:17;10.50;99.90
51579;DHT22;47998;53.242;6.386;2023-07-20T04:41:43;10.70;99.90
51579;DHT22;47998;53.242;6.386;2023-07-20T04:44:08;10.80;99.90
51579;DHT22;47998;53.242;6.386;2023-07-20T04:46:34;11.00;99.90
51579;DHT22;47998;53.242;6.386;2023-07-20T04:49:00;11.20;99.90
51579;DHT22;47998;53.242;6.386;2023-07-20T04:51:27;11.60;99.90
51579;DHT22;47998;53.242;6.386;2023-07-20T04:53:55;11.90;99.90
51579;DHT22;47998;53.242;6.386;2023-07-20T04:56:21;12.10;99.90
51579;DHT22;47998;53.242;6.386;2023-07-20T04:58:48;12.30;99.90
51579;DHT22;47998;53.242;6.386;2023-07-20T05:01:14;12.30;99.90
51579;DHT22;47998;53.242;6.386;2023-07-20T05:03:40;12.40;99.90
51579;DHT22;47998;53.242;6.386;2023-07-20T05:06:06;12.30;99.90
51579;DHT22;47998;53.242;6.386;2023-07-20T05:08:31;12.30;99.90
51579;DHT22;47998;53.242;6.386;2023-07-20T05:10:57;12.30;99.90
51579;DHT22;47998;53.242;6.386;2023-07-20T05:13:23;12.40;99.90
51579;DHT22;47998;53.242;6.386;2023-07-20T05:15:51;12.50;99.90
51579;DHT22;47998;53.242;6.386;2023-07-20T05:18:18;12.60;99.90
51579;DHT22;47998;53.242;6.386;2023-07-20T05:20:48;12.60;99.90
51579;DHT22;47998;53.242;6.386;2023-07-20T05:23:14;12.60;99.90
51579;DHT22;47998;53.242;6.386;2023-07-20T05:25:40;12.80;99.90
51579;DHT22;47998;53.242;6.386;2023-07-20T05:28:06;13.30;99.90
51579;DHT22;47998;53.242;6.386;2023-07-20T05:30:32;14.00;99.90
51579;DHT22;47998;53.242;6.386;2023-07-20T05:32:58;14.60;99.90
51579;DHT22;47998;53.242;6.386;2023-07-20T05:35:23;15.20;99.90
51579;DHT22;47998;53.242;6.386;2023-07-20T05:37:49;15.70;99.90
51579;DHT22;47998;53.242;6.386;2023-07-20T05:40:15;16.10;99.90
51579;DHT22;47998;53.242;6.386;2023-07-20T05:42:47;16.40;99.90
51579;DHT22;47998;53.242;6.386;2023-07-20T05:45:14;16.60;99.90
51579;DHT22;47998;53.242;6.386;2023-07-20T05:47:41;16.80;99.90
51579;DHT22;47998;53.242;6.386;2023-07-20T05:50:07;17.10;99.90
51579;DHT22;47998;53.242;6.386;2023-07-20T05:52:33;17.20;99.90
51579;DHT22;47998;53.242;6.386;2023-07-20T05:54:58;17.70;45.90
51579;DHT22;47998;53.242;6.386;2023-07-20T05:57:24;17.90;1.00
51579;DHT22;47998;53.242;6.386;2023-07-20T05:59:50;17.90;99.90
51579;DHT22;47998;53.242;6.386;2023-07-20T06:02:16;18.00;99.90
51579;DHT22;47998;53.242;6.386;2023-07-20T06:04:42;18.10;99.90
51579;DHT22;47998;53.242;6.386;2023-07-20T06:07:08;18.60;99.90
51579;DHT22;47998;53.242;6.386;2023-07-20T06:09:34;18.80;1.00
51579;DHT22;47998;53.242;6.386;2023-07-20T06:12:00;18.70;99.90
51579;DHT22;47998;53.242;6.386;2023-07-20T06:14:25;18.90;1.00
51579;DHT22;47998;53.242;6.386;2023-07-20T06:16:51;19.10;1.00
51579;DHT22;47998;53.242;6.386;2023-07-20T06:19:17;18.70;99.90
51579;DHT22;47998;53.242;6.386;2023-07-20T06:21:43;19.00;1.00
51579;DHT22;47998;53.242;6.386;2023-07-20T06:24:09;19.20;99.90
51579;DHT22;47998;53.242;6.386;2023-07-20T06:26:35;19.50;99.90
51579;DHT22;47998;53.242;6.386;2023-07-20T06:29:05;19.00;78.90
51579;DHT22;47998;53.242;6.386;2023-07-20T06:31:32;19.10;1.00
51579;DHT22;47998;53.242;6.386;2023-07-20T06:33:58;19.10;1.00
51579;DHT22;47998;53.242;6.386;2023-07-20T06:36:24;19.20;99.90
51579;DHT22;47998;53.242;6.386;2023-07-20T06:38:52;18.90;1.00
51579;DHT22;47998;53.242;6.386;2023-07-20T06:41:18;19.00;1.00
51579;DHT22;47998;53.242;6.386;2023-07-20T06:43:44;19.10;99.90
51579;DHT22;47998;53.242;6.386;2023-07-20T06:46:10;19.40;1.00
51579;DHT22;47998;53.242;6.386;2023-07-20T06:48:36;19.40;49.60
51579;DHT22;47998;53.242;6.386;2023-07-20T06:51:02;19.10;99.90
51579;DHT22;47998;53.242;6.386;2023-07-20T06:53:29;19.20;99.90
51579;DHT22;47998;53.242;6.386;2023-07-20T06:55:54;19.40;1.00
51579;DHT22;47998;53.242;6.386;2023-07-20T06:58:23;19.90;1.00
51579;DHT22;47998;53.242;6.386;2023-07-20T07:00:49;19.60;99.90
51579;DHT22;47998;53.242;6.386;2023-07-20T07:03:15;19.50;99.90
51579;DHT22;47998;53.242;6.386;2023-07-20T07:05:40;19.50;99.90
51579;DHT22;47998;53.242;6.386;2023-07-20T07:08:06;19.20;99.90
51579;DHT22;47998;53.242;6.386;2023-07-20T07:10:34;18.90;99.90
51579;DHT22;47998;53.242;6.386;2023-07-20T07:13:00;19.10;99.90
51579;DHT22;47998;53.242;6.386;2023-07-20T07:15:26;19.30;1.00
51579;DHT22;47998;53.242;6.386;2023-07-20T07:17:53;19.10;1.00
51579;DHT22;47998;53.242;6.386;2023-07-20T07:20:18;19.40;1.00
51579;DHT22;47998;53.242;6.386;2023-07-20T07:22:44;19.30;1.00
51579;DHT22;47998;53.242;6.386;2023-07-20T07:25:11;19.20;99.90
51579;DHT22;47998;53.242;6.386;2023-07-20T07:27:36;19.50;1.00
51579;DHT22;47998;53.242;6.386;2023-07-20T07:30:06;19.20;1.00
51579;DHT22;47998;53.242;6.386;2023-07-20T07:32:31;19.30;1.00
51579;DHT22;47998;53.242;6.386;2023-07-20T07:34:57;19.50;1.00
51579;DHT22;47998;53.242;6.386;2023-07-20T07:37:26;19.70;1.00
51579;DHT22;47998;53.242;6.386;2023-07-20T07:39:51;19.70;99.90
51579;DHT22;47998;53.242;6.386;2023-07-20T07:42:17;20.00;99.90
51579;DHT22;47998;53.242;6.386;2023-07-20T07:44:44;20.00;99.90
51579;DHT22;47998;53.242;6.386;2023-07-20T07:47:10;19.40;1.00
51579;DHT22;47998;53.242;6.386;2023-07-20T07:49:36;18.60;1.00
51579;DHT22;47998;53.242;6.386;2023-07-20T07:52:02;17.90;99.90
51579;DHT22;47998;53.242;6.386;2023-07-20T07:54:28;17.60;1.00
51579;DHT22;47998;53.242;6.386;2023-07-20T07:56:54;18.40;1.00
51579;DHT22;47998;53.242;6.386;2023-07-20T07:59:20;19.00;99.90
51579;DHT22;47998;53.242;6.386;2023-07-20T08:01:46;19.50;1.00
51579;DHT22;47998;53.242;6.386;2023-07-20T08:04:11;20.00;99.90
51579;DHT22;47998;53.242;6.386;2023-07-20T08:06:37;19.50;99.90
51579;DHT22;47998;53.242;6.386;2023-07-20T08:09:03;19.00;1.00
51579;DHT22;47998;53.242;6.386;2023-07-20T08:11:28;18.10;99.90
51579;DHT22;47998;53.242;6.386;2023-07-20T08:13:56;17.60;99.90
51579;DHT22;47998;53.242;6.386;2023-07-20T08:16:22;17.50;58.30
51579;DHT22;47998;53.242;6.386;2023-07-20T08:18:48;18.20;98.70
51579;DHT22;47998;53.242;6.386;2023-07-20T08:21:14;18.30;1.00
51579;DHT22;47998;53.242;6.386;2023-07-20T08:23:40;17.80;75.30
51579;DHT22;47998;53.242;6.386;2023-07-20T08:26:05;18.40;1.00
51579;DHT22;47998;53.242;6.386;2023-07-20T08:28:31;19.50;99.90
51579;DHT22;47998;53.242;6.386;2023-07-20T08:30:57;20.30;1.00
51579;DHT22;47998;53.242;6.386;2023-07-20T08:33:23;20.90;99.90
51579;DHT22;47998;53.242;6.386;2023-07-20T08:35:49;20.90;99.90
51579;DHT22;47998;53.242;6.386;2023-07-20T08:38:15;21.10;22.10
51579;DHT22;47998;53.242;6.386;2023-07-20T08:40:46;21.00;1.00
51579;DHT22;47998;53.242;6.386;2023-07-20T08:43:13;21.10;62.80
51579;DHT22;47998;53.242;6.386;2023-07-20T08:45:42;20.50;81.80
51579;DHT22;47998;53.242;6.386;2023-07-20T08:48:12;20.10;99.90
51579;DHT22;47998;53.242;6.386;2023-07-20T08:50:38;20.30;1.00
51579;DHT22;47998;53.242;6.386;2023-07-20T08:53:06;20.40;1.00
51579;DHT22;47998;53.242;6.386;2023-07-20T08:55:31;20.70;1.00
51579;DHT22;47998;53.242;6.386;2023-07-20T08:57:59;20.80;1.00
51579;DHT22;47998;53.242;6.386;2023-07-20T09:00:25;21.30;1.00
51579;DHT22;47998;53.242;6.386;2023-07-20T09:02:56;21.30;1.00
51579;DHT22;47998;53.242;6.386;2023-07-20T09:05:24;21.50;1.00
51579;DHT22;47998;53.242;6.386;2023-07-20T09:07:51;21.40;99.90
51579;DHT22;47998;53.242;6.386;2023-07-20T09:10:23;21.70;1.00
51579;DHT22;47998;53.242;6.386;2023-07-20T09:12:49;21.30;99.90
51579;DHT22;47998;53.242;6.386;2023-07-20T09:15:15;20.40;99.90
51579;DHT22;47998;53.242;6.386;2023-07-20T09:17:46;20.60;1.00
51579;DHT22;47998;53.242;6.386;2023-07-20T09:20:14;21.30;1.00
51579;DHT22;47998;53.242;6.386;2023-07-20T09:22:42;22.50;1.00
51579;DHT22;47998;53.242;6.386;2023-07-20T09:25:15;22.60;99.90
51579;DHT22;47998;53.242;6.386;2023-07-20T09:27:43;23.00;99.90
51579;DHT22;47998;53.242;6.386;2023-07-20T09:30:10;22.10;99.90
51579;DHT22;47998;53.242;6.386;2023-07-20T09:32:46;21.70;99.90
51579;DHT22;47998;53.242;6.386;2023-07-20T09:35:16;21.50;99.90
51579;DHT22;47998;53.242;6.386;2023-07-20T09:37:55;21.70;99.90
51579;DHT22;47998;53.242;6.386;2023-07-20T09:40:24;21.50;99.90
51579;DHT22;47998;53.242;6.386;2023-07-20T09:42:53;21.80;99.90
51579;DHT22;47998;53.242;6.386;2023-07-20T09:45:50;23.00;99.90
51579;DHT22;47998;53.242;6.386;2023-07-20T09:48:14;22.30;99.90
51579;DHT22;47998;53.242;6.386;2023-07-20T09:50:50;20.60;99.90
51579;DHT22;47998;53.242;6.386;2023-07-20T09:53:17;19.60;99.90
51579;DHT22;47998;53.242;6.386;2023-07-20T09:55:47;19.10;1.00
51579;DHT22;47998;53.242;6.386;2023-07-20T09:58:14;18.80;99.90
51579;DHT22;47998;53.242;6.386;2023-07-20T10:00:42;18.80;99.90
51579;DHT22;47998;53.242;6.386;2023-07-20T10:03:20;19.90;99.90
51579;DHT22;47998;53.242;6.386;2023-07-20T10:06:07;21.20;1.00
51579;DHT22;47998;53.242;6.386;2023-07-20T10:08:38;22.00;99.90
51579;DHT22;47998;53.242;6.386;2023-07-20T10:11:07;21.70;99.90
51579;DHT22;47998;53.242;6.386;2023-07-20T10:13:37;20.80;99.90
51579;DHT22;47998;53.242;6.386;2023-07-20T10:16:15;21.40;99.90
51579;DHT22;47998;53.242;6.386;2023-07-20T10:22:00;22.00;99.90
51579;DHT22;47998;53.242;6.386;2023-07-20T10:24:30;21.40;99.90
51579;DHT22;47998;53.242;6.386;2023-07-20T10:26:57;20.90;99.90
51579;DHT22;47998;53.242;6.386;2023-07-20T10:29:24;21.20;99.90
51579;DHT22;47998;53.242;6.386;2023-07-20T10:31:50;21.20;99.90
51579;DHT22;47998;53.242;6.386;2023-07-20T10:34:16;21.30;99.90
51579;DHT22;47998;53.242;6.386;2023-07-20T10:36:46;21.30;99.90
51579;DHT22;47998;53.242;6.386;2023-07-20T10:39:25;21.40;99.90
51579;DHT22;47998;53.242;6.386;2023-07-20T10:42:03;22.70;99.90
51579;DHT22;47998;53.242;6.386;2023-07-20T10:44:30;22.90;99.90
51579;DHT22;47998;53.242;6.386;2023-07-20T10:47:03;21.60;99.90
51579;DHT22;47998;53.242;6.386;2023-07-20T10:49:34;20.80;99.90
51579;DHT22;47998;53.242;6.386;2023-07-20T10:52:04;20.70;99.90
51579;DHT22;47998;53.242;6.386;2023-07-20T10:56:57;21.90;99.90
51579;DHT22;47998;53.242;6.386;2023-07-20T11:01:49;20.90;99.90
51579;DHT22;47998;53.242;6.386;2023-07-20T11:04:15;20.80;99.90
51579;DHT22;47998;53.242;6.386;2023-07-20T11:06:44;21.20;99.90
51579;DHT22;47998;53.242;6.386;2023-07-20T11:09:14;20.90;99.90
51579;DHT22;47998;53.242;6.386;2023-07-20T11:11:42;20.50;99.90
51579;DHT22;47998;53.242;6.386;2023-07-20T11:14:30;20.10;99.90
51579;DHT22;47998;53.242;6.386;2023-07-20T11:17:14;20.30;99.90
51579;DHT22;47998;53.242;6.386;2023-07-20T11:19:40;21.50;99.90
51579;DHT22;47998;53.242;6.386;2023-07-20T11:22:07;22.40;99.90
51579;DHT22;47998;53.242;6.386;2023-07-20T11:24:39;23.20;99.90
51579;DHT22;47998;53.242;6.386;2023-07-20T11:27:05;22.80;99.90
51579;DHT22;47998;53.242;6.386;2023-07-20T11:29:31;22.30;99.90
51579;DHT22;47998;53.242;6.386;2023-07-20T11:31:57;22.70;99.90
51579;DHT22;47998;53.242;6.386;2023-07-20T11:34:24;23.30;99.90
51579;DHT22;47998;53.242;6.386;2023-07-20T11:36:51;23.70;99.90
51579;DHT22;47998;53.242;6.386;2023-07-20T11:39:19;23.00;42.20
51579;DHT22;47998;53.242;6.386;2023-07-20T11:41:49;22.50;60.00
51579;DHT22;47998;53.242;6.386;2023-07-20T11:44:16;22.40;37.70
51579;DHT22;47998;53.242;6.386;2023-07-20T11:46:43;22.70;99.90
51579;DHT22;47998;53.242;6.386;2023-07-20T11:49:10;23.20;99.90
51579;DHT22;47998;53.242;6.386;2023-07-20T11:51:36;23.50;75.60
51579;DHT22;47998;53.242;6.386;2023-07-20T11:54:04;23.20;84.10
51579;DHT22;47998;53.242;6.386;2023-07-20T11:56:30;22.00;25.10
51579;DHT22;47998;53.242;6.386;2023-07-20T11:58:57;20.90;99.90
51579;DHT22;47998;53.242;6.386;2023-07-20T12:01:25;20.40;99.90
51579;DHT22;47998;53.242;6.386;2023-07-20T12:04:02;20.10;99.90
51579;DHT22;47998;53.242;6.386;2023-07-20T12:06:29;19.80;99.90
51579;DHT22;47998;53.242;6.386;2023-07-20T12:08:55;19.80;99.90
51579;DHT22;47998;53.242;6.386;2023-07-20T12:11:32;19.80;1.00
51579;DHT22;47998;53.242;6.386;2023-07-20T12:13:58;19.50;99.90
51579;DHT22;47998;53.242;6.386;2023-07-20T12:16:27;19.40;1.00
51579;DHT22;47998;53.242;6.386;2023-07-20T12:19:00;19.30;26.60
51579;DHT22;47998;53.242;6.386;2023-07-20T12:21:27;19.10;1.00
51579;DHT22;47998;53.242;6.386;2023-07-20T12:23:54;19.00;1.00
51579;DHT22;47998;53.242;6.386;2023-07-20T12:26:21;18.90;99.90
51579;DHT22;47998;53.242;6.386;2023-07-20T12:28:49;19.10;99.90
51579;DHT22;47998;53.242;6.386;2023-07-20T12:31:15;19.30;99.90
51579;DHT22;47998;53.242;6.386;2023-07-20T12:33:41;19.70;78.00
51579;DHT22;47998;53.242;6.386;2023-07-20T12:36:08;19.90;1.00
51579;DHT22;47998;53.242;6.386;2023-07-20T12:38:34;20.10;1.00
51579;DHT22;47998;53.242;6.386;2023-07-20T12:41:03;20.40;1.00
51579;DHT22;47998;53.242;6.386;2023-07-20T12:43:29;20.60;99.90
51579;DHT22;47998;53.242;6.386;2023-07-20T12:45:56;20.40;99.90
51579;DHT22;47998;53.242;6.386;2023-07-20T12:48:24;20.20;99.90
51579;DHT22;47998;53.242;6.386;2023-07-20T12:50:49;19.80;1.00
51579;DHT22;47998;53.242;6.386;2023-07-20T12:53:16;19.50;1.00
51579;DHT22;47998;53.242;6.386;2023-07-20T12:55:41;19.10;1.00
51579;DHT22;47998;53.242;6.386;2023-07-20T12:58:08;18.90;77.20
51579;DHT22;47998;53.242;6.386;2023-07-20T13:00:34;18.70;99.90
51579;DHT22;47998;53.242;6.386;2023-07-20T13:03:02;18.80;99.90
51579;DHT22;47998;53.242;6.386;2023-07-20T13:05:32;19.40;99.90
51579;DHT22;47998;53.242;6.386;2023-07-20T13:07:58;20.10;1.00
51579;DHT22;47998;53.242;6.386;2023-07-20T13:10:24;20.10;1.00
51579;DHT22;47998;53.242;6.386;2023-07-20T13:12:50;19.90;1.00
51579;DHT22;47998;53.242;6.386;2023-07-20T13:15:17;19.60;1.00
51579;DHT22;47998;53.242;6.386;2023-07-20T13:17:43;19.30;99.90
51579;DHT22;47998;53.242;6.386;2023-07-20T13:20:09;19.10;99.90
51579;DHT22;47998;53.242;6.386;2023-07-20T13:22:39;19.00;1.00
51579;DHT22;47998;53.242;6.386;2023-07-20T13:25:06;19.10;99.90
51579;DHT22;47998;53.242;6.386;2023-07-20T13:27:32;19.90;99.90
51579;DHT22;47998;53.242;6.386;2023-07-20T13:30:01;20.40;99.90
51579;DHT22;47998;53.242;6.386;2023-07-20T13:32:31;20.80;99.90
51579;DHT22;47998;53.242;6.386;2023-07-20T13:34:57;20.70;99.90
51579;DHT22;47998;53.242;6.386;2023-07-20T13:37:23;20.30;8.90
51579;DHT22;47998;53.242;6.386;2023-07-20T13:39:49;19.80;70.60
51579;DHT22;47998;53.242;6.386;2023-07-20T13:42:19;19.40;99.90
51579;DHT22;47998;53.242;6.386;2023-07-20T13:44:50;19.40;99.90
51579;DHT22;47998;53.242;6.386;2023-07-20T13:47:18;20.00;99.90
51579;DHT22;47998;53.242;6.386;2023-07-20T13:49:47;20.70;99.90
51579;DHT22;47998;53.242;6.386;2023-07-20T13:52:12;21.20;42.80
51579;DHT22;47998;53.242;6.386;2023-07-20T13:54:38;21.40;1.00
51579;DHT22;47998;53.242;6.386;2023-07-20T13:57:04;21.20;1.00
51579;DHT22;47998;53.242;6.386;2023-07-20T13:59:30;21.10;1.00
51579;DHT22;47998;53.242;6.386;2023-07-20T14:01:58;20.70;1.00
51579;DHT22;47998;53.242;6.386;2023-07-20T14:04:26;20.40;1.00
51579;DHT22;47998;53.242;6.386;2023-07-20T14:06:54;20.30;1.00
51579;DHT22;47998;53.242;6.386;2023-07-20T14:09:20;20.30;1.00
51579;DHT22;47998;53.242;6.386;2023-07-20T14:11:45;20.20;37.40
51579;DHT22;47998;53.242;6.386;2023-07-20T14:14:11;20.10;99.90
51579;DHT22;47998;53.242;6.386;2023-07-20T14:16:37;20.10;99.90
51579;DHT22;47998;53.242;6.386;2023-07-20T14:19:03;20.00;99.90
51579;DHT22;47998;53.242;6.386;2023-07-20T14:21:30;19.70;99.90
51579;DHT22;47998;53.242;6.386;2023-07-20T14:23:56;19.50;99.90
51579;DHT22;47998;53.242;6.386;2023-07-20T14:26:23;19.60;99.90
51579;DHT22;47998;53.242;6.386;2023-07-20T14:28:49;19.70;99.90
51579;DHT22;47998;53.242;6.386;2023-07-20T14:31:15;19.80;99.90
51579;DHT22;47998;53.242;6.386;2023-07-20T14:33:41;19.90;99.90
51579;DHT22;47998;53.242;6.386;2023-07-20T14:36:06;19.90;99.90
51579;DHT22;47998;53.242;6.386;2023-07-20T14:38:33;20.00;99.90
51579;DHT22;47998;53.242;6.386;2023-07-20T14:40:59;20.00;99.90
51579;DHT22;47998;53.242;6.386;2023-07-20T14:43:25;19.90;99.90
51579;DHT22;47998;53.242;6.386;2023-07-20T14:45:51;19.50;99.90
51579;DHT22;47998;53.242;6.386;2023-07-20T14:48:17;19.40;99.90
51579;DHT22;47998;53.242;6.386;2023-07-20T14:50:42;19.50;99.90
51579;DHT22;47998;53.242;6.386;2023-07-20T14:53:12;19.90;99.90
51579;DHT22;47998;53.242;6.386;2023-07-20T14:55:37;20.30;99.90
51579;DHT22;47998;53.242;6.386;2023-07-20T14:58:03;20.30;99.90
51579;DHT22;47998;53.242;6.386;2023-07-20T15:00:29;20.60;98.80
51579;DHT22;47998;53.242;6.386;2023-07-20T15:02:56;20.60;7.10
51579;DHT22;47998;53.242;6.386;2023-07-20T15:05:24;20.80;45.10
51579;DHT22;47998;53.242;6.386;2023-07-20T15:07:52;20.90;99.90
51579;DHT22;47998;53.242;6.386;2023-07-20T15:10:19;21.10;3.10
51579;DHT22;47998;53.242;6.386;2023-07-20T15:12:45;20.60;17.20
51579;DHT22;47998;53.242;6.386;2023-07-20T15:15:12;20.70;1.00
51579;DHT22;47998;53.242;6.386;2023-07-20T15:17:40;20.20;1.00
51579;DHT22;47998;53.242;6.386;2023-07-20T15:20:09;20.00;1.00
51579;DHT22;47998;53.242;6.386;2023-07-20T15:22:35;19.90;99.90
51579;DHT22;47998;53.242;6.386;2023-07-20T15:25:04;19.90;99.90
51579;DHT22;47998;53.242;6.386;2023-07-20T15:27:30;20.10;99.90
51579;DHT22;47998;53.242;6.386;2023-07-20T15:29:57;20.50;99.90
51579;DHT22;47998;53.242;6.386;2023-07-20T15:32:22;20.80;34.90
51579;DHT22;47998;53.242;6.386;2023-07-20T15:34:48;21.20;1.00
51579;DHT22;47998;53.242;6.386;2023-07-20T15:37:14;21.60;1.00
51579;DHT22;47998;53.242;6.386;2023-07-20T15:39:42;22.30;1.00
51579;DHT22;47998;53.242;6.386;2023-07-20T15:42:08;23.00;1.00
51579;DHT22;47998;53.242;6.386;2023-07-20T15:44:34;23.10;99.90
51579;DHT22;47998;53.242;6.386;2023-07-20T15:47:00;22.60;99.90
51579;DHT22;47998;53.242;6.386;2023-07-20T15:49:26;22.60;99.90
51579;DHT22;47998;53.242;6.386;2023-07-20T15:51:55;22.70;99.90
51579;DHT22;47998;53.242;6.386;2023-07-20T15:54:21;22.70;99.90
51579;DHT22;47998;53.242;6.386;2023-07-20T15:56:49;22.30;99.90